Time;durP1;ratioP1;P1;durP2;ratioP2;P2;SDS_P1;SDS_P2;PMS_P1;PMS_P2;Temp;Humidity;BMP_temperature;BMP_pressure;BME280_temperature;BME280_humidity;BME280_pressure;Samples;Min_cycle;Max_cycle;Signal;HPM_P1;HPM_P2
2022/08/13 00:00:32;;;;;;;;;;;;;;;18.58;41.42;96456.00;5045635;28;19969;-73
2022/08/13 00:02:59;;;;;;;;;;;;;;;18.56;41.76;96458.13;5045856;28;19960;-73
2022/08/13 00:05:25;;;;;;;;;;;;;;;18.55;41.85;96456.53;5038927;28;19967;-73
2022/08/13 00:07:51;;;;;;;;;;;;;;;18.55;42.01;96456.53;5045810;28;19953;-73
2022/08/13 00:13:00;;;;;;;;;;;;;;;18.56;42.17;96450.16;5051054;28;19965;-73
2022/08/13 00:15:31;;;;;;;;;;;;;;;18.56;41.99;96446.69;5046271;28;19971;-73
2022/08/13 00:17:59;;;;;;;;;;;;;;;18.55;42.23;96445.13;5062349;28;20399;-73
2022/08/13 00:20:26;;;;;;;;;;;;;;;18.54;41.54;96441.66;5045549;28;20308;-73
2022/08/13 00:22:54;;;;;;;;;;;;;;;18.54;42.17;96443.50;5045920;28;19954;-74
2022/08/13 00:25:20;;;;;;;;;;;;;;;18.52;42.17;96446.44;5036642;28;19965;-73
2022/08/13 00:27:50;;;;;;;;;;;;;;;18.51;42.27;96452.81;5042194;28;20384;-73
2022/08/13 00:30:17;;;;;;;;;;;;;;;18.50;42.22;96448.59;5044670;28;19981;-73
2022/08/13 00:32:44;;;;;;;;;;;;;;;18.49;42.61;96452.28;5045347;28;19966;-73
2022/08/13 00:35:12;;;;;;;;;;;;;;;18.45;42.60;96444.06;5048252;28;19954;-73
2022/08/13 00:37:41;;;;;;;;;;;;;;;18.41;42.73;96437.69;5043593;28;19955;-73
2022/08/13 00:40:09;;;;;;;;;;;;;;;18.38;42.98;96432.13;5045832;28;19965;-73
2022/08/13 00:42:35;;;;;;;;;;;;;;;18.34;42.68;96444.34;5044435;28;20021;-73
2022/08/13 00:45:01;;;;;;;;;;;;;;;18.30;43.01;96437.97;5045074;28;19955;-73
2022/08/13 00:50:13;;;;;;;;;;;;;;;18.19;43.05;96434.53;5044321;28;19953;-73
2022/08/13 00:52:40;;;;;;;;;;;;;;;18.14;43.28;96429.22;5047298;28;19968;-73
2022/08/13 00:55:08;;;;;;;;;;;;;;;18.11;43.40;96427.13;5047378;28;20324;-73
2022/08/13 00:57:35;;;;;;;;;;;;;;;18.09;43.61;96429.22;5045555;28;19961;-73
2022/08/13 01:00:07;;;;;;;;;;;;;;;18.07;43.42;96420.75;5045701;28;19955;-73
2022/08/13 01:02:33;;;;;;;;;;;;;;;18.04;43.82;96414.91;5044679;28;19961;-73
2022/08/13 01:05:00;;;;;;;;;;;;;;;18.02;43.79;96417.03;5045414;28;19954;-74
2022/08/13 01:07:28;;;;;;;;;;;;;;;17.99;43.76;96406.13;5036579;28;19956;-73
2022/08/13 01:09:54;;;;;;;;;;;;;;;17.96;43.88;96407.47;5044695;28;20320;-73
2022/08/13 01:12:21;;;;;;;;;;;;;;;17.94;43.65;96408.81;5042189;28;19962;-73
2022/08/13 01:14:48;;;;;;;;;;;;;;;17.93;44.09;96412.50;5051124;28;20339;-73
2022/08/13 01:17:15;;;;;;;;;;;;;;;17.91;44.02;96411.97;5049552;28;19958;-73
2022/08/13 01:19:43;;;;;;;;;;;;;;;17.88;44.06;96407.22;5044327;28;20315;-73
2022/08/13 01:22:09;;;;;;;;;;;;;;;17.89;44.62;96422.06;5046358;28;19956;-73
2022/08/13 01:24:35;;;;;;;;;;;;;;;17.88;44.53;96415.16;5039671;28;19968;-73
2022/08/13 01:27:01;;;;;;;;;;;;;;;17.85;44.28;96404.03;5043718;28;20362;-73
2022/08/13 01:29:27;;;;;;;;;;;;;;;17.85;44.90;96416.50;5050710;28;19982;-73
2022/08/13 01:31:53;;;;;;;;;;;;;;;17.83;45.28;96405.38;5043091;28;19989;-73
2022/08/13 01:34:19;;;;;;;;;;;;;;;17.80;45.10;96400.53;5053418;28;20336;-73
2022/08/13 01:36:49;;;;;;;;;;;;;;;17.76;45.08;96413.53;5044420;28;19961;-73
2022/08/13 01:39:15;;;;;;;;;;;;;;;17.74;45.46;96414.84;5045644;28;19957;-73
2022/08/13 01:41:41;;;;;;;;;;;;;;;17.73;45.34;96410.63;5045102;28;19950;-72
2022/08/13 01:44:07;;;;;;;;;;;;;;;17.68;45.34;96406.13;5044396;28;19956;-73
2022/08/13 01:50:29;;;;;;;;;;;;;;;17.67;45.61;96414.34;5049523;28;20383;-73
2022/08/13 01:52:05;;;;;;;;;;;;;;;17.55;45.83;96411.91;5043422;28;20418;-73
2022/08/13 01:54:36;;;;;;;;;;;;;;;17.52;45.42;96415.91;5038369;28;19958;-73
2022/08/13 01:57:03;;;;;;;;;;;;;;;17.49;46.10;96415.63;5045059;28;19970;-73
2022/08/13 01:59:29;;;;;;;;;;;;;;;17.46;46.07;96414.28;5046465;28;19951;-73
2022/08/13 02:01:57;;;;;;;;;;;;;;;17.45;46.29;96423.31;5039982;28;19970;-73
2022/08/13 02:04:22;;;;;;;;;;;;;;;17.43;46.82;96422.78;5039750;28;19969;-73
2022/08/13 02:06:48;;;;;;;;;;;;;;;17.42;46.27;96413.22;5045873;28;19974;-72
2022/08/13 02:09:14;;;;;;;;;;;;;;;17.39;46.18;96416.41;5045352;28;19952;-74
2022/08/13 02:11:41;;;;;;;;;;;;;;;17.35;46.51;96418.78;5037163;28;20010;-73
2022/08/13 02:14:07;;;;;;;;;;;;;;;17.34;46.64;96413.72;5044748;28;19955;-72
2022/08/13 02:16:35;;;;;;;;;;;;;;;17.32;46.57;96413.97;5044571;28;19962;-73
2022/08/13 02:19:02;;;;;;;;;;;;;;;17.30;47.69;96415.31;5046085;28;19964;-75
2022/08/13 02:21:34;;;;;;;;;;;;;;;17.29;47.74;96419.03;5044957;28;19958;-73
2022/08/13 02:24:03;;;;;;;;;;;;;;;17.24;47.74;96423.25;5042586;28;19955;-74
2022/08/13 02:26:32;;;;;;;;;;;;;;;17.21;47.22;96417.69;5039654;28;19964;-73
2022/08/13 02:29:00;;;;;;;;;;;;;;;17.20;47.26;96416.88;5049505;28;19986;-74
2022/08/13 02:31:28;;;;;;;;;;;;;;;17.19;47.43;96414.50;5043881;28;19961;-74
2022/08/13 02:33:55;;;;;;;;;;;;;;;17.15;47.57;96422.16;5043296;28;19954;-74
2022/08/13 02:36:22;;;;;;;;;;;;;;;17.07;47.75;96427.94;5041447;28;19957;-74
2022/08/13 02:38:58;;;;;;;;;;;;;;;16.98;47.43;96419.72;5044785;28;19961;-74
2022/08/13 02:41:43;;;;;;;;;;;;;;;16.84;47.75;96426.56;5035051;28;19963;-74
2022/08/13 02:44:13;;;;;;;;;;;;;;;16.73;48.22;96416.94;5037293;28;19974;-73
2022/08/13 02:46:42;;;;;;;;;;;;;;;16.67;48.78;96421.38;5041243;28;19965;-74
2022/08/13 02:49:09;;;;;;;;;;;;;;;16.63;48.78;96420.31;5044502;28;20329;-73
2022/08/13 02:51:35;;;;;;;;;;;;;;;16.63;48.87;96415.00;5046547;28;19963;-74
2022/08/13 02:54:01;;;;;;;;;;;;;;;16.63;48.82;96418.47;5042211;28;20422;-74
2022/08/13 02:56:28;;;;;;;;;;;;;;;16.64;48.95;96416.63;5040822;28;19955;-74
2022/08/13 02:58:54;;;;;;;;;;;;;;;16.61;49.14;96417.16;5047200;28;19970;-74
2022/08/13 03:01:21;;;;;;;;;;;;;;;16.59;48.70;96413.97;5042570;28;19990;-74
2022/08/13 03:03:47;;;;;;;;;;;;;;;16.57;48.71;96406.28;5039023;28;19955;-74
2022/08/13 03:06:13;;;;;;;;;;;;;;;16.55;48.99;96412.88;5041364;28;20061;-74
2022/08/13 03:08:39;;;;;;;;;;;;;;;16.53;49.40;96422.94;5046879;28;19955;-74
2022/08/13 03:11:05;;;;;;;;;;;;;;;16.48;49.61;96428.16;5042198;28;20010;-74
2022/08/13 03:13:36;;;;;;;;;;;;;;;16.43;49.27;96429.75;5042667;28;20001;-74
2022/08/13 03:16:03;;;;;;;;;;;;;;;16.40;49.63;96434.75;5040349;28;19988;-74
2022/08/13 03:18:29;;;;;;;;;;;;;;;16.36;49.67;96434.47;5047289;28;19949;-74
2022/08/13 03:20:55;;;;;;;;;;;;;;;16.32;49.45;96440.53;5043959;28;19948;-74
2022/08/13 03:23:24;;;;;;;;;;;;;;;16.28;49.97;96434.16;5041977;28;20009;-74
2022/08/13 03:25:50;;;;;;;;;;;;;;;16.28;49.98;96436.78;5039203;28;19990;-74
2022/08/13 03:28:16;;;;;;;;;;;;;;;16.24;49.67;96433.84;5045848;28;20444;-74
2022/08/13 03:30:43;;;;;;;;;;;;;;;16.22;49.78;96443.88;5043866;28;19959;-73
2022/08/13 03:33:11;;;;;;;;;;;;;;;16.19;49.60;96434.63;5041649;28;19955;-74
2022/08/13 03:35:37;;;;;;;;;;;;;;;16.19;49.78;96444.38;5047266;28;19948;-73
2022/08/13 03:38:08;;;;;;;;;;;;;;;16.18;49.75;96437.50;5052113;28;19952;-73
2022/08/13 03:41:19;;;;;;;;;;;;;;;16.16;50.16;96440.41;5047028;28;20336;-74
2022/08/13 03:43:20;;;;;;;;;;;;;;;16.12;50.02;96434.03;5043404;28;19948;-73
2022/08/13 03:45:46;;;;;;;;;;;;;;;16.08;50.54;96443.50;5047864;28;19980;-74
2022/08/13 03:48:13;;;;;;;;;;;;;;;16.06;50.74;96440.31;5045103;28;19963;-74
2022/08/13 03:50:40;;;;;;;;;;;;;;;16.03;50.77;96438.19;5046886;28;19952;-74
2022/08/13 03:53:06;;;;;;;;;;;;;;;16.00;50.64;96431.56;5046133;28;19972;-74
2022/08/13 03:55:37;;;;;;;;;;;;;;;15.99;50.78;96435.25;5046891;28;20032;-74
2022/08/13 03:58:04;;;;;;;;;;;;;;;15.99;50.85;96440.53;5042192;28;19959;-74
2022/08/13 04:00:31;;;;;;;;;;;;;;;15.96;50.91;96438.41;5048657;28;19967;-74
2022/08/13 04:02:57;;;;;;;;;;;;;;;15.94;51.10;96440.50;5051085;28;19959;-74
2022/08/13 04:05:23;;;;;;;;;;;;;;;15.93;52.09;96443.41;5045601;28;20434;-73
2022/08/13 04:07:51;;;;;;;;;;;;;;;15.90;51.28;96435.97;5046037;28;20025;-74
2022/08/13 04:10:17;;;;;;;;;;;;;;;15.89;52.18;96434.38;5046853;28;19955;-74
2022/08/13 04:12:43;;;;;;;;;;;;;;;15.87;51.76;96431.97;5047489;28;19963;-74
2022/08/13 04:15:09;;;;;;;;;;;;;;;15.86;50.76;96421.66;5048442;28;19962;-74
2022/08/13 04:17:36;;;;;;;;;;;;;;;15.83;51.08;96420.28;5044868;28;19958;-74
2022/08/13 04:20:06;;;;;;;;;;;;;;;15.81;51.62;96423.22;5043215;28;19952;-74
2022/08/13 04:22:33;;;;;;;;;;;;;;;15.77;51.83;96422.13;5042879;28;19948;-74
2022/08/13 04:24:59;;;;;;;;;;;;;;;15.77;51.75;96429.22;5047013;28;19955;-74
2022/08/13 04:27:25;;;;;;;;;;;;;;;15.75;51.45;96426.06;5050005;28;19980;-74
2022/08/13 04:29:53;;;;;;;;;;;;;;;15.72;51.63;96430.00;5040623;28;19969;-74
2022/08/13 04:32:23;;;;;;;;;;;;;;;15.71;52.28;96431.03;5044908;28;19957;-74
2022/08/13 04:34:48;;;;;;;;;;;;;;;15.71;51.91;96430.22;5046906;28;20010;-74
2022/08/13 04:37:14;;;;;;;;;;;;;;;15.69;51.86;96434.97;5043595;28;20002;-74
2022/08/13 04:39:40;;;;;;;;;;;;;;;15.67;52.35;96439.72;5044649;28;19947;-74
2022/08/13 04:42:07;;;;;;;;;;;;;;;15.64;52.50;96438.34;5043692;28;19953;-73
2022/08/13 04:44:33;;;;;;;;;;;;;;;15.65;52.56;96439.16;5048724;28;19955;-74
2022/08/13 04:46:59;;;;;;;;;;;;;;;15.63;53.00;96432.25;5039013;28;19962;-74
2022/08/13 04:49:25;;;;;;;;;;;;;;;15.67;52.51;96445.00;5041114;28;19956;-74
2022/08/13 04:51:51;;;;;;;;;;;;;;;15.71;52.91;96443.44;5042566;28;19961;-74
2022/08/13 04:54:19;;;;;;;;;;;;;;;15.79;52.89;96443.81;5041128;28;19963;-74
2022/08/13 04:56:46;;;;;;;;;;;;;;;15.95;52.64;96441.28;5049190;28;19963;-73
2022/08/13 04:59:12;;;;;;;;;;;;;;;16.12;52.52;96439.31;5045308;28;19951;-74
2022/08/13 05:01:38;;;;;;;;;;;;;;;16.31;52.24;96446.84;5040078;28;19960;-74
2022/08/13 05:04:05;;;;;;;;;;;;;;;16.48;51.73;96434.25;5043757;28;20426;-74
2022/08/13 05:06:31;;;;;;;;;;;;;;;16.64;51.69;96433.31;5050724;28;19974;-74
2022/08/13 05:08:59;;;;;;;;;;;;;;;16.79;51.21;96429.13;5043799;28;19952;-73
2022/08/13 05:11:25;;;;;;;;;;;;;;;16.94;51.38;96425.78;5041281;28;19956;-74
2022/08/13 05:13:51;;;;;;;;;;;;;;;17.08;50.63;96426.91;5043155;28;19964;-73
2022/08/13 05:16:17;;;;;;;;;;;;;;;17.25;50.95;96424.84;5044722;28;20340;-74
2022/08/13 05:18:45;;;;;;;;;;;;;;;17.42;50.07;96413.22;5043600;28;20400;-74
2022/08/13 05:21:12;;;;;;;;;;;;;;;17.63;49.70;96412.19;5045339;28;19951;-74
2022/08/13 05:23:39;;;;;;;;;;;;;;;17.85;48.20;96408.53;5043829;28;19950;-74
2022/08/13 05:26:05;;;;;;;;;;;;;;;18.10;49.15;96423.66;5046736;28;19964;-74
2022/08/13 05:28:32;;;;;;;;;;;;;;;18.42;48.20;96425.22;5049073;28;19989;-74
2022/08/13 05:30:59;;;;;;;;;;;;;;;18.70;47.86;96415.06;5044295;28;19959;-74
2022/08/13 05:33:26;;;;;;;;;;;;;;;19.01;47.06;96407.81;5045210;28;19961;-74
2022/08/13 05:35:53;;;;;;;;;;;;;;;19.36;46.63;96403.38;5045944;28;20407;-74
2022/08/13 05:38:22;;;;;;;;;;;;;;;19.66;45.94;96400.50;5043667;28;19957;-73
2022/08/13 05:40:49;;;;;;;;;;;;;;;20.03;45.25;96398.38;5062237;28;20430;-74
2022/08/13 05:43:16;;;;;;;;;;;;;;;20.39;44.61;96396.22;5044580;28;19965;-74
2022/08/13 05:45:46;;;;;;;;;;;;;;;20.70;43.95;96393.22;5045014;28;19945;-73
2022/08/13 05:48:12;;;;;;;;;;;;;;;20.98;43.23;96390.81;5043100;28;19968;-73
2022/08/13 05:50:38;;;;;;;;;;;;;;;21.24;42.97;96389.38;5044353;28;19957;-73
2022/08/13 05:53:05;;;;;;;;;;;;;;;21.48;42.49;96394.69;5042925;28;19999;-74
2022/08/13 05:55:31;;;;;;;;;;;;;;;21.72;41.85;96385.78;5041764;28;20409;-74
2022/08/13 05:57:57;;;;;;;;;;;;;;;21.95;41.97;96386.75;5048564;28;19959;-74
2022/08/13 06:03:25;;;;;;;;;;;;;;;22.31;40.92;96388.84;5043698;28;20404;-73
2022/08/13 06:06:00;;;;;;;;;;;;;;;22.57;40.88;96381.13;5040619;28;20329;-73
2022/08/13 06:08:44;;;;;;;;;;;;;;;22.82;40.25;96385.19;5044705;28;20315;-75
2022/08/13 06:11:14;;;;;;;;;;;;;;;23.03;39.85;96372.22;5032183;28;19951;-73
2022/08/13 06:13:40;;;;;;;;;;;;;;;23.24;39.63;96375.25;5039486;28;20321;-73
2022/08/13 06:16:08;;;;;;;;;;;;;;;23.45;39.35;96370.25;5043856;28;19948;-73
2022/08/13 06:18:35;;;;;;;;;;;;;;;23.65;38.91;96370.88;5025804;28;19966;-74
2022/08/13 06:21:03;;;;;;;;;;;;;;;23.79;38.68;96379.69;5044367;28;19957;-73
2022/08/13 06:23:30;;;;;;;;;;;;;;;23.87;38.38;96376.25;5044104;28;19951;-73
2022/08/13 06:25:57;;;;;;;;;;;;;;;23.92;38.24;96378.03;5044791;28;19962;-73
2022/08/13 06:28:26;;;;;;;;;;;;;;;23.93;38.37;96374.25;5064087;28;19993;-74
2022/08/13 06:31:00;;;;;;;;;;;;;;;23.97;38.39;96380.59;5041186;28;19949;-73
2022/08/13 06:33:27;;;;;;;;;;;;;;;24.04;38.06;96380.97;5043328;28;19961;-74
2022/08/13 06:35:54;;;;;;;;;;;;;;;24.14;37.96;96382.56;5044137;28;19959;-74
2022/08/13 06:38:22;;;;;;;;;;;;;;;24.16;37.95;96380.38;5045571;28;19962;-73
2022/08/13 06:40:48;;;;;;;;;;;;;;;24.15;37.59;96372.63;5043702;28;19952;-73
2022/08/13 06:43:19;;;;;;;;;;;;;;;24.16;37.94;96374.22;5042280;28;20441;-73
2022/08/13 06:45:46;;;;;;;;;;;;;;;24.21;38.09;96390.16;5036794;28;19983;-74
2022/08/13 06:48:12;;;;;;;;;;;;;;;24.21;37.80;96393.66;5046668;28;19974;-73
2022/08/13 06:50:38;;;;;;;;;;;;;;;24.18;37.53;96386.22;5047962;28;19960;-73
2022/08/13 06:53:05;;;;;;;;;;;;;;;24.15;37.81;96394.06;5041999;28;20300;-73
2022/08/13 06:55:33;;;;;;;;;;;;;;;24.08;37.70;96391.84;5039743;28;19955;-73
2022/08/13 06:57:59;;;;;;;;;;;;;;;24.06;37.88;96394.81;5042891;28;19969;-73
2022/08/13 07:00:26;;;;;;;;;;;;;;;24.07;37.79;96392.94;5044244;28;20056;-73
2022/08/13 07:02:52;;;;;;;;;;;;;;;24.00;38.01;96398.75;5046143;28;19952;-73
2022/08/13 07:05:30;;;;;;;;;;;;;;;23.96;37.85;96397.75;5038708;28;19962;-73
2022/08/13 07:07:57;;;;;;;;;;;;;;;23.87;38.03;96397.69;5039524;28;19961;-73
2022/08/13 07:10:22;;;;;;;;;;;;;;;;;;5044694;28;19958;-74
2022/08/13 07:12:48;;;;;;;;;;;;;;;23.76;38.33;96399.03;5050544;28;20046;-73
2022/08/13 07:15:15;;;;;;;;;;;;;;;23.76;38.32;96403.56;5046082;28;20002;-73
2022/08/13 07:17:44;;;;;;;;;;;;;;;23.76;37.90;96399.03;5052272;28;19949;-74
2022/08/13 07:20:10;;;;;;;;;;;;;;;23.69;38.33;96404.78;5042017;28;19951;-73
2022/08/13 07:22:36;;;;;;;;;;;;;;;23.66;38.29;96407.25;5047670;28;20437;-73
2022/08/13 07:25:03;;;;;;;;;;;;;;;23.64;38.50;96404.09;5048422;28;19959;-73
2022/08/13 07:27:30;;;;;;;;;;;;;;;23.67;38.51;96409.66;5049896;28;19987;-74
2022/08/13 07:29:56;;;;;;;;;;;;;;;23.79;38.65;96398.44;5046475;28;19983;-73
2022/08/13 07:32:23;;;;;;;;;;;;;;;23.95;38.52;96403.41;5049528;28;20023;-73
2022/08/13 07:34:49;;;;;;;;;;;;;;;24.13;38.62;96398.94;5045013;28;19956;-73
2022/08/13 07:37:19;;;;;;;;;;;;;;;24.17;37.97;96403.41;5042276;28;19991;-74
2022/08/13 07:39:45;;;;;;;;;;;;;;;24.20;38.05;96405.47;5050628;28;19969;-73
2022/08/13 07:42:12;;;;;;;;;;;;;;;24.21;37.84;96400.88;5046045;28;20053;-74
2022/08/13 07:44:40;;;;;;;;;;;;;;;24.22;38.13;96405.16;5047125;28;19965;-73
2022/08/13 07:47:11;;;;;;;;;;;;;;;24.28;38.18;96407.41;5041081;28;19968;-73
2022/08/13 07:49:37;;;;;;;;;;;;;;;24.30;37.99;96404.41;5046203;28;19955;-73
2022/08/13 07:52:05;;;;;;;;;;;;;;;24.37;38.00;96396.72;5052662;28;19978;-73
2022/08/13 07:54:31;;;;;;;;;;;;;;;24.34;37.83;96389.31;5045563;28;20416;-75
2022/08/13 07:56:59;;;;;;;;;;;;;;;24.30;37.72;96391.03;5040599;28;20331;-73
2022/08/13 07:59:26;;;;;;;;;;;;;;;24.30;37.47;96397.16;5043580;28;19961;-73
2022/08/13 08:01:53;;;;;;;;;;;;;;;24.39;37.84;96399.88;5046605;28;19957;-73
2022/08/13 08:04:20;;;;;;;;;;;;;;;24.43;38.07;96395.50;5047373;28;19964;-73
2022/08/13 08:06:47;;;;;;;;;;;;;;;24.61;37.28;96403.63;5047673;28;19965;-73
2022/08/13 08:09:16;;;;;;;;;;;;;;;24.74;37.25;96389.34;5040676;28;19959;-74
2022/08/13 08:14:27;;;;;;;;;;;;;;;25.15;36.70;96390.06;5050049;28;19953;-73
2022/08/13 08:16:53;;;;;;;;;;;;;;;25.26;35.75;96388.69;5049183;28;20319;-73
2022/08/13 08:19:20;;;;;;;;;;;;;;;25.28;36.36;96394.53;5043159;28;19957;-74
2022/08/13 08:21:47;;;;;;;;;;;;;;;25.23;35.05;96392.00;5044959;28;19959;-73
2022/08/13 08:24:13;;;;;;;;;;;;;;;25.15;35.71;96396.22;5051124;28;20444;-74
2022/08/13 08:26:40;;;;;;;;;;;;;;;25.16;35.06;96397.00;5043709;28;20414;-73
2022/08/13 08:29:09;;;;;;;;;;;;;;;25.16;35.32;96395.13;5043178;28;19987;-73
2022/08/13 08:31:38;;;;;;;;;;;;;;;25.14;35.14;96397.34;5049487;28;20447;-74
2022/08/13 08:34:07;;;;;;;;;;;;;;;25.12;34.54;96404.91;5045445;28;19957;-73
2022/08/13 08:36:37;;;;;;;;;;;;;;;25.12;35.13;96403.00;5039452;28;19963;-75
2022/08/13 08:44:34;;;;;;;;;;;;;;;25.48;34.95;96391.25;5044015;28;19963;-73
2022/08/13 08:47:01;;;;;;;;;;;;;;;25.51;34.79;96403.25;5044089;28;19973;-73
2022/08/13 08:49:28;;;;;;;;;;;;;;;25.48;35.07;96391.25;5057030;28;19956;-74
2022/08/13 08:51:54;;;;;;;;;;;;;;;25.62;35.77;96395.66;5042779;28;19962;-74
2022/08/13 08:54:22;;;;;;;;;;;;;;;25.87;35.40;96397.56;5041791;28;19964;-73
2022/08/13 08:56:49;;;;;;;;;;;;;;;25.84;34.65;96397.41;5049670;28;19966;-73
2022/08/13 08:59:15;;;;;;;;;;;;;;;25.79;34.40;96395.66;5047825;28;19967;-73
2022/08/13 09:01:42;;;;;;;;;;;;;;;25.73;34.64;96394.25;5044623;28;19964;-73
2022/08/13 09:04:09;;;;;;;;;;;;;;;25.79;34.11;96392.19;5050353;28;20414;-73
2022/08/13 09:06:35;;;;;;;;;;;;;;;25.81;34.81;96401.50;5046166;28;19967;-74
2022/08/13 09:09:02;;;;;;;;;;;;;;;25.77;33.85;96394.41;5041836;28;19964;-73
2022/08/13 09:11:29;;;;;;;;;;;;;;;25.87;34.69;96397.56;5041824;28;19979;-73
2022/08/13 09:13:55;;;;;;;;;;;;;;;25.83;33.75;96391.25;5049983;28;20317;-73
2022/08/13 09:16:23;;;;;;;;;;;;;;;25.70;34.00;96384.13;5042452;28;20012;-73
2022/08/13 09:18:49;;;;;;;;;;;;;;;25.73;34.49;96383.50;5044836;28;19952;-73
2022/08/13 09:21:15;;;;;;;;;;;;;;;25.56;33.31;96389.69;5045486;28;20041;-73
2022/08/13 09:23:45;;;;;;;;;;;;;;;25.22;34.65;96393.91;5044407;28;19960;-73
2022/08/13 09:26:12;;;;;;;;;;;;;;;25.00;35.43;96388.63;5049541;28;19979;-75
2022/08/13 09:28:41;;;;;;;;;;;;;;;24.95;35.47;96392.25;5039507;28;19988;-74
2022/08/13 09:31:07;;;;;;;;;;;;;;;24.92;35.68;96390.19;5042756;28;19962;-73
2022/08/13 09:33:38;;;;;;;;;;;;;;;24.89;35.74;96398.84;5051245;28;19958;-73
2022/08/13 09:36:06;;;;;;;;;;;;;;;24.75;35.51;96387.44;5043711;28;20048;-73
2022/08/13 09:38:33;;;;;;;;;;;;;;;24.68;36.01;96394.06;5045257;28;19951;-73
2022/08/13 09:41:04;;;;;;;;;;;;;;;24.64;35.98;96392.31;5044610;28;20320;-73
2022/08/13 09:43:49;;;;;;;;;;;;;;;24.54;36.81;96395.25;5046052;28;19952;-73
2022/08/13 09:46:16;;;;;;;;;;;;;;;24.45;36.80;96400.56;5045842;28;20399;-73
2022/08/13 09:48:43;;;;;;;;;;;;;;;24.28;35.62;96393.22;5043952;28;19976;-73
2022/08/13 09:51:13;;;;;;;;;;;;;;;24.23;37.21;96393.34;5043970;28;19966;-73
2022/08/13 09:53:46;;;;;;;;;;;;;;;24.35;37.01;96387.41;5038438;28;20339;-73
2022/08/13 09:56:14;;;;;;;;;;;;;;;24.51;37.21;96397.47;5044752;28;20411;-73
2022/08/13 09:58:40;;;;;;;;;;;;;;;24.67;38.04;96389.00;5044088;28;19966;-73
2022/08/13 10:01:05;;;;;;;;;;;;;;;24.77;35.33;96382.56;5049354;28;20043;-74
2022/08/13 10:03:33;;;;;;;;;;;;;;;24.71;35.79;96384.59;5043110;28;20440;-73
2022/08/13 10:05:59;;;;;;;;;;;;;;;24.55;35.90;96376.19;5039984;28;19963;-73
2022/08/13 10:08:25;;;;;;;;;;;;;;;24.40;36.24;96387.28;5040768;28;20413;-73
2022/08/13 10:10:51;;;;;;;;;;;;;;;24.39;36.58;96391.06;5047032;28;19960;-74
2022/08/13 10:13:16;;;;;;;;;;;;;;;24.67;36.30;96384.44;5045361;28;19989;-73
2022/08/13 10:15:42;;;;;;;;;;;;;;;24.92;35.67;96384.81;5043718;28;19957;-73
2022/08/13 10:18:08;;;;;;;;;;;;;;;25.08;34.76;96377.91;5039487;28;19960;-73
2022/08/13 10:20:38;;;;;;;;;;;;;;;25.30;35.13;96373.53;5043340;28;19966;-73
2022/08/13 10:23:08;;;;;;;;;;;;;;;25.34;34.59;96374.50;5043419;28;19949;-73
2022/08/13 10:25:37;;;;;;;;;;;;;;;25.35;34.94;96375.31;5065143;28;20332;-73
2022/08/13 10:28:22;;;;;;;;;;;;;;;25.53;34.67;96374.19;5039636;28;20421;-74
2022/08/13 10:30:49;;;;;;;;;;;;;;;25.77;33.91;96362.19;5041525;28;20322;-73
2022/08/13 10:33:16;;;;;;;;;;;;;;;25.83;33.68;96364.38;5042116;28;20145;-73
2022/08/13 10:35:42;;;;;;;;;;;;;;;25.57;33.00;96360.91;5047723;28;19959;-73
2022/08/13 10:38:13;;;;;;;;;;;;;;;25.37;33.71;96360.44;5043575;28;20437;-73
2022/08/13 10:40:39;;;;;;;;;;;;;;;25.39;34.21;96357.44;5042997;28;19947;-73
2022/08/13 10:43:06;;;;;;;;;;;;;;;25.46;34.76;96361.22;5040576;28;20443;-74
2022/08/13 10:45:32;;;;;;;;;;;;;;;25.60;33.72;96361.09;5056130;28;20359;-73
2022/08/13 10:48:00;;;;;;;;;;;;;;;25.73;32.21;96344.00;5050379;28;19974;-73
2022/08/13 10:50:29;;;;;;;;;;;;;;;25.70;33.01;96351.91;5048133;28;19964;-73
2022/08/13 10:52:59;;;;;;;;;;;;;;;25.79;32.19;96349.22;5048693;28;19966;-73
2022/08/13 10:55:25;;;;;;;;;;;;;;;25.96;32.85;96348.44;5050940;28;19960;-73
2022/08/13 10:57:51;;;;;;;;;;;;;;;25.98;31.89;96348.91;5048987;28;20331;-73
2022/08/13 11:00:17;;;;;;;;;;;;;;;25.67;31.49;96350.63;5051583;28;20403;-73
2022/08/13 11:02:44;;;;;;;;;;;;;;;25.50;31.74;96354.13;5051390;28;19960;-73
2022/08/13 11:05:11;;;;;;;;;;;;;;;25.43;32.04;96345.78;5044751;28;19956;-73
2022/08/13 11:07:38;;;;;;;;;;;;;;;25.45;32.08;96350.81;5049634;28;19967;-73
2022/08/13 11:10:05;;;;;;;;;;;;;;;25.51;32.68;96347.66;5048346;28;19963;-73
2022/08/13 11:12:33;;;;;;;;;;;;;;;25.57;31.54;96340.22;5048547;28;19961;-73
2022/08/13 11:15:00;;;;;;;;;;;;;;;25.66;32.60;96343.69;5049075;28;19956;-73
2022/08/13 11:17:26;;;;;;;;;;;;;;;25.73;32.28;96338.63;5049879;28;20031;-73
2022/08/13 11:19:52;;;;;;;;;;;;;;;25.63;30.96;96343.53;5065124;28;19964;-73
2022/08/13 11:22:23;;;;;;;;;;;;;;;25.57;32.29;96348.28;5049991;28;20448;-73
2022/08/13 11:24:49;;;;;;;;;;;;;;;25.63;31.75;96348.91;5042684;28;19968;-74
2022/08/13 11:27:15;;;;;;;;;;;;;;;25.68;32.24;96346.06;5054397;28;19962;-74
2022/08/13 11:29:42;;;;;;;;;;;;;;;25.84;31.87;96344.44;5051178;28;19980;-73
2022/08/13 11:32:08;;;;;;;;;;;;;;;26.02;32.02;96336.41;5049212;28;20330;-73
2022/08/13 11:34:34;;;;;;;;;;;;;;;26.05;31.74;96341.91;5055052;28;19970;-73
2022/08/13 11:37:00;;;;;;;;;;;;;;;26.03;31.69;96332.59;5050820;28;20481;-73
2022/08/13 11:39:26;;;;;;;;;;;;;;;26.01;31.89;96343.66;5047269;28;19954;-74
2022/08/13 11:41:52;;;;;;;;;;;;;;;26.09;32.10;96339.38;5045347;28;19965;-73
2022/08/13 11:44:18;;;;;;;;;;;;;;;26.22;32.13;96343.75;5053471;28;19955;-74
2022/08/13 11:46:44;;;;;;;;;;;;;;;26.30;32.01;96340.25;5051691;28;20050;-74
2022/08/13 11:49:11;;;;;;;;;;;;;;;26.52;31.98;96336.53;5054284;28;20345;-73
2022/08/13 11:51:39;;;;;;;;;;;;;;;26.81;31.48;96339.56;5048695;28;19965;-74
2022/08/13 11:54:05;;;;;;;;;;;;;;;27.06;31.12;96327.84;5044925;28;19963;-73
2022/08/13 11:56:31;;;;;;;;;;;;;;;27.28;30.40;96321.41;5051187;28;20008;-73
2022/08/13 11:58:57;;;;;;;;;;;;;;;27.47;30.70;96326.31;5051744;28;19986;-73
2022/08/13 12:01:25;;;;;;;;;;;;;;;27.76;30.20;96326.50;5042673;28;20354;-73
2022/08/13 12:03:54;;;;;;;;;;;;;;;28.03;29.24;96317.06;5044383;28;19960;-73
2022/08/13 12:06:20;;;;;;;;;;;;;;;28.22;29.28;96311.16;5048616;28;20042;-73
2022/08/13 12:08:45;;;;;;;;;;;;;;;28.38;29.06;96320.16;5045888;28;19975;-73
2022/08/13 12:11:11;;;;;;;;;;;;;;;28.58;29.28;96306.91;5045527;28;20041;-73
2022/08/13 12:13:37;;;;;;;;;;;;;;;28.81;29.68;96321.53;5048524;28;19963;-73
2022/08/13 12:16:03;;;;;;;;;;;;;;;28.91;28.00;96312.16;5049811;28;19964;-73
2022/08/13 12:18:29;;;;;;;;;;;;;;;28.96;29.06;96314.66;5045877;28;19959;-73
2022/08/13 12:20:55;;;;;;;;;;;;;;;29.05;28.78;96309.13;5044499;28;19969;-73
2022/08/13 12:23:21;;;;;;;;;;;;;;;29.23;28.00;96318.56;5044541;28;19958;-73
2022/08/13 12:25:47;;;;;;;;;;;;;;;29.06;26.69;96316.88;5046782;28;20008;-73
2022/08/13 12:28:18;;;;;;;;;;;;;;;28.79;26.80;96312.19;5045641;28;19973;-72
2022/08/13 12:30:45;;;;;;;;;;;;;;;28.62;27.45;96311.31;5049218;28;19963;-73
2022/08/13 12:33:11;;;;;;;;;;;;;;;28.47;27.58;96317.34;5046714;28;19953;-73
2022/08/13 12:35:37;;;;;;;;;;;;;;;28.47;27.80;96323.53;5041462;28;19961;-73
2022/08/13 12:38:10;;;;;;;;;;;;;;;28.65;27.66;96313.34;5046315;28;19963;-72
2022/08/13 12:40:37;;;;;;;;;;;;;;;28.56;26.76;96317.25;5042282;28;19969;-73
2022/08/13 12:43:03;;;;;;;;;;;;;;;28.58;26.57;96304.22;5044230;28;19964;-73
2022/08/13 12:45:29;;;;;;;;;;;;;;;28.43;25.80;96311.03;5046100;28;20326;-74
2022/08/13 12:48:00;;;;;;;;;;;;;;;28.31;27.22;96312.63;5047164;28;20060;-73
2022/08/13 12:50:26;;;;;;;;;;;;;;;28.44;26.38;96302.63;5050798;28;19959;-73
2022/08/13 12:52:52;;;;;;;;;;;;;;;28.52;26.81;96292.88;5045195;28;19958;-73
2022/08/13 12:55:18;;;;;;;;;;;;;;;28.64;25.98;96294.78;5043308;28;19961;-73
2022/08/13 12:57:44;;;;;;;;;;;;;;;28.75;26.02;96293.22;5043280;28;19957;-73
2022/08/13 13:00:10;;;;;;;;;;;;;;;28.88;26.24;96300.16;5044829;28;19961;-73
2022/08/13 13:02:38;;;;;;;;;;;;;;;28.80;26.25;96308.38;5047723;28;19970;-73
2022/08/13 13:05:04;;;;;;;;;;;;;;;28.78;26.93;96305.22;5044024;28;19957;-74
2022/08/13 13:07:30;;;;;;;;;;;;;;;28.86;26.70;96291.59;5040883;28;20443;-73